• Join FlightAware (Why Join?)
  • Login
  • US Flag 
06:33PM EST


 

Airport Tracker/Info


-or-


 

Live Flight TrackerFlight Track Log ✈ N517MD ✈ 21-Apr-2013 ✈ KSAT - MMAN / NTR

Flight Track Log - Related Links

Times and Time Zones

All times are in EDT time to prevent confusion due to time zone crossing. See the N517MD flight status page for this flight to view local times or setup timezone preferences in your user account.

Time Position Orientation Groundspeed Altitude Reporting Facility
EDT Latitude Longitude Course Direction KTS MPH feet Rate Location/Type
01:46PM 29.5247 -98.4636 201° Southwest 159 183 1,700  Level Houston Center
01:47PM 29.4911 -98.4172 130° Southeast 176 203 4,600 2,520 Climbing Houston Center
01:48PM 29.4764 -98.3989 133° Southeast 192 221 5,600 2,280 Climbing Houston Center
01:48PM 29.4442 -98.3869 162° South 221 254 6,700 1,920 Climbing Houston Center
01:49PM 29.4117 -98.3914 187° South 236 272 7,600 1,620 Climbing Houston Center
01:50PM 29.3583 -98.4522 225° Southwest 271 312 9,300 1,980 Climbing Houston Center
01:51PM 29.2931 -98.5214 223° Southwest 295 339 11,700 2,280 Climbing Houston Center
01:52PM 29.2409 -98.6059 201° Southwest  Level FlightAware Approximate
01:52PM 29.2203 -98.5675 209° Southwest 302 348 14,100  Level Houston Center
01:53PM 29.1392 -98.6139 207° Southwest 303 349 16,300 1,800 Climbing Houston Center
01:54PM 29.0619 -98.6583 207° Southwest 311 358 17,900 1,740 Climbing Houston Center
01:55PM 28.9833 -98.7031 206° Southwest 315 362 20,000 2,040 Climbing Houston Center
01:56PM 28.9025 -98.7503 207° Southwest 304 350 22,200 1,980 Climbing Houston Center
01:57PM 28.8278 -98.7925 206° Southwest 301 346 24,100 1,500 Climbing Houston Center
01:58PM 28.7447 -98.8389 206° Southwest 311 358 25,300 960 Climbing Houston Center
01:59PM 28.6744 -98.8764 205° Southwest 329 379 26,100 960 Climbing Houston Center
02:00PM 28.5722 -98.9353 207° Southwest 341 392 27,400 1,200 Climbing Houston Center
02:01PM 28.4856 -98.9842 206° Southwest 346 398 28,600 1,080 Climbing Houston Center
02:02PM 28.4003 -99.0319 206° Southwest 344 396 29,700 960 Climbing Houston Center
02:03PM 28.3136 -99.0800 206° Southwest 345 397 30,700 840 Climbing Houston Center
02:04PM 28.2272 -99.1283 206° Southwest 347 399 31,500 600 Climbing Houston Center
02:05PM 28.1219 -99.1875 206° Southwest 351 404 32,000 240 Climbing Houston Center
02:06PM 28.0297 -99.2378 206° Southwest 364 419 32,000  Level Houston Center
02:07PM 27.9344 -99.2914 206° Southwest 380 437 32,000  Level Houston Center
02:08PM 27.8369 -99.3458 206° Southwest 390 449 32,000  Level Houston Center
02:09PM 27.7383 -99.4008 206° Southwest 396 456 32,000  Level Houston Center
02:10PM 27.6189 -99.4672 206° Southwest 401 461 32,000  Level Houston Center
02:11PM 27.5183 -99.5219 206° Southwest 404 465 32,000  Level Houston Center
02:13PM 27.4314 -99.5601 193° South  Level Estimated
02:20PM 26.8698 -99.8053 197° South  Level Estimated
02:21PM 26.7850 -99.8219 190° South  Level FlightAware Approximate
02:22PM 26.7002 -99.8384 190° South  Level FlightAware Approximate
02:23PM 26.6154 -99.8549 190° South  Level FlightAware Approximate
02:24PM 26.5306 -99.8714 190° South  Level FlightAware Approximate
02:25PM 26.4458 -99.8879 190° South  Level FlightAware Approximate
02:26PM 26.3701 -99.9337 195° South  Level Estimated
02:27PM 26.2844 -99.9428 185° South  Level FlightAware Approximate
02:28PM 26.2117 -99.9941 197° South  Level Estimated
02:29PM 26.1261 -100.0040 186° South  Level FlightAware Approximate
02:30PM 26.0590 -100.0642 195° South  Level Estimated
02:31PM 25.9730 -100.0652 181° South  Level FlightAware Approximate
02:32PM 25.9239 -100.1439 197° South  Level Estimated
02:33PM 25.8748 -100.2225 310° West  Level Estimated
02:34PM 25.8656 -100.2372 299° West  Level Estimated
02:35PM 25.8656 -100.2372 318° Northwest  Level Estimated
02:36PM 25.8656 -100.2372 318° Northwest  Level Estimated
02:37PM 25.8656 -100.2372 318° Northwest  Level Estimated
02:38PM 25.8656 -100.2372 318° Northwest  Level Estimated
02:39PM 25.8656 -100.2372 318° Northwest  Level Estimated
02:40PM 25.8656 -100.2372 318° Northwest  Level Estimated
02:41PM 25.8656 -100.2372 318° Northwest  Level Estimated
02:42PM 25.8656 -100.2372 318° Northwest  Level Estimated
02:43PM 25.8656 -100.2372 318° Northwest  Level Estimated
02:44PM 25.8656 -100.2372 318° Northwest  Level Estimated
02:45PM 25.8656 -100.2372 318° Northwest  Level Estimated
02:46PM 25.8656 -100.2372 318° Northwest  Level Estimated
02:47PM 25.8656 -100.2372 318° Northwest  Level Estimated
02:48PM 25.8656 -100.2372 318° Northwest  Level Estimated
02:49PM 25.8656 -100.2372 318° Northwest  Level Estimated
02:50PM 25.8656 -100.2372 318° Northwest  Level Estimated
02:51PM 25.8656 -100.2372 318° Northwest  Level Estimated
02:52PM 25.8656 -100.2372 318° Northwest  Level Estimated
02:53PM 25.8656 -100.2372 318° Northwest  Level Estimated